This is the latest recevied weather packets stored in our database for station/object KM4KBD. If no packets are shown the sender has not sent any weather packets the latest 1 day(s).
| Time | Temp. | Humidity | Pressure | Rain* | Wind** | Luminosity | Snow |
|---|---|---|---|---|---|---|---|
| 1778086694 | 13.89° C | 87% | 1018.8 hPa | 0 mm | - | 327 W/m² | - |
| 1778086391 | 13.33° C | 86% | 1018.7 hPa | 0 mm | - | 393 W/m² | - |
| 1778083662 | 11.11° C | 94% | 1018.9 hPa | 0 mm | - | 274 W/m² | - |
| 1778080107 | 10° C | 99% | 1018.5 hPa | 0 mm | - | 149 W/m² | - |
| 1778079500 | 10° C | 99% | 1018.6 hPa | 0 mm | - | 116 W/m² | - |
| 1778077986 | 10° C | 99% | 1018 hPa | 0 mm | - | 67 W/m² | - |
| 1778077080 | 10° C | 99% | 1017.7 hPa | 0 mm | - | 73 W/m² | - |
| 1778076778 | 10° C | 99% | 1017.6 hPa | 0 mm | - | 77 W/m² | - |
| 1778076475 | 10° C | 99% | 1017.7 hPa | 0 mm | - | 66 W/m² | - |
| 1778076172 | 10° C | 99% | 1017.7 hPa | 0 mm | - | 64 W/m² | - |
| 1778075869 | 10° C | 99% | 1017.7 hPa | 0 mm | - | 63 W/m² | - |
| 1778075565 | 10° C | 99% | 1017.4 hPa | 0 mm | - | 67 W/m² | - |
| 1778075262 | 10° C | 99% | 1017.7 hPa | 0 mm | - | 74 W/m² | - |
| 1778074656 | 10° C | 99% | 1017.3 hPa | 0 mm | - | 91 W/m² | - |
| 1778074352 | 10° C | 99% | 1017 hPa | 0 mm | - | 90 W/m² | - |
| 1778073140 | 9.44° C | 99% | 1017 hPa | 0 mm | - | 52 W/m² | - |
| 1778072837 | 9.44° C | 99% | 1016.9 hPa | 0 mm | - | 49 W/m² | - |
| 1778072534 | 9.44° C | 99% | 1017.1 hPa | 0 mm | - | 46 W/m² | - |
| 1778072232 | 9.44° C | 99% | 1017 hPa | 0 mm | - | 46 W/m² | - |
| 1778070721 | 9.44° C | 99% | 1016.9 hPa | 1.27 mm | - | 27 W/m² | - |
| 1778069207 | 10° C | 99% | 1016 hPa | 0 mm | - | 28 W/m² | - |
| 1778067997 | 11.67° C | 99% | 1015.9 hPa | 0 mm | - | 13 W/m² | - |
| 1778067695 | 11.67° C | 99% | 1015.5 hPa | 0 mm | - | 12 W/m² | - |
| 1778067090 | 12.78° C | 99% | 1015.4 hPa | 0 mm | - | 9 W/m² | - |
| 1778065879 | 14.44° C | 99% | 1014.4 hPa | 0 mm | - | 9 W/m² | - |
* Rain latest hour (hover to see other rain measurements)
** Current wind speed in m/s (hover to see current wind gust speed)